Ellsworth Air Force Base
KRCA : rendu visible

Aérodrome :











RETROUVEZ-NOUS SUR...

 
LOGIN :

S'inscrire | Disclaimer

   EN    FR    IT 

 









Légende :    VFR   VFR Marginal   IFR   IFR Intensif   IFR Très Intensif
Visi : 
Plafond : 
>= 8 km
>= 3000ft
5 à 8 km
1000 à 3000 ft
1500m à 5 km
500 à 1000 ft
800 à 1500m
200 à 500 ft
< 800m
< 200 ft
Symboles :   Orages  Brouillard  Fortes neiges  Fortes précipitations  Vent > 20 kt







- Altitude de l'aérodrome : 3276 ft


KRCA - Ellsworth Air Force Base

DERNIER METAR :
  • 200020Z AUTO 01009KT 10SM SCT018 SCT025 OVC034 05/05 A3004 RMK AO2 RAB11E20 SLP197 $

METARs EXPIRÉS :
  • 200011Z AUTO 03007KT 10SM -RA BKN017 BKN025 OVC031 05/05 A3005 RMK AO2 RAB11 BKN017 V OVC SLP201 $
  • 200006Z AUTO 02007KT 10SM BKN017 BKN022 OVC029 05/05 A3005 RMK AO2 BKN017 V OVC SLP201 $
  • 192356Z AUTO 01006KT 10SM OVC015 05/05 A3005 RMK AO2 RAB34E44 SLP201 P0000 60001 T00470047 10047 20030 $
  • 192344Z AUTO 01004KT 10SM OVC015 05/05 A3005 RMK AO2 RAB34E44 SLP201 $
  • 192334Z AUTO 36007KT 10SM -RA OVC015 05/05 A3005 RMK AO2 RAB34 SLP201 $
  • 192256Z AUTO 33007KT 10SM OVC016 05/05 A3004 RMK AO2 SLP197 T00450045 $
  • 192221Z AUTO 01008KT 10SM OVC015 05/05 A3004 RMK AO2 SLP197 $
  • 192156Z AUTO 01007KT 10SM OVC013 04/04 A3005 RMK AO2 SLP203 T00440044 $

Prévision TAF périmée.
FIR KZDV / Amérique du Nord



MET'MAP, la Météo Aéronautique d'un coup d'oeil ! - Copyright ORBIFLY Décembre 2007 - Disclaimer

ORBIFLY MET'MAP TEAM :

Programmation & Développement : Alexandra Zaïnal
Conception & Développement : Baudouin d'Aumeries
Co-Programmation & Développement : Marc-Olivier Méhu
Soutien technique & logistique : Manuel Goepfert

Contact : metmap@orbifly.com




SOURCES & CREDITS :

   NOAA       Earth
Advisory